Meath Environmental Platform

Observations for Trim Market St

Time AQI Temp °C Hum % Pres Pa CO μg/m³ H₂S μg/m³ NO μg/m³ NO₂ μg/m³ O₃ μg/m³ SO₂ μg/m³ PM1 μg/m³ PM2.5 μg/m³ PM10 μg/m³
Monday 13 July 2026
02:53 1 18.2 74 46,896 0.03 0 0 3.58 19.64 0 3.56 5.77 9.35
02:52 1 18.3 74 46,948 0.02 0 0 3.36 19.4 0 3.56 5.77 8.74
02:51 1 18.3 74 46,997 0.03 0 0 3.26 20.82 0 2.85 4.33 8.14
02:50 1 18.3 74 47,049 0.02 0 0 4.17 20.38 0 3.56 4.81 7.53
02:49 1 18.3 74 47,065 0.03 0 0 3.76 19.83 0 2.14 3.85 6.32
02:48 1 18.3 74 47,098 0.02 0 0 3.87 20.78 0 2.14 3.85 6.92
02:47 1 18.3 74 47,103 0.03 0 0 3.27 21.26 0 2.14 3.85 7.53
02:46 1 18.3 74 47,120 0.01 0 0 3.67 18.26 0 2.85 4.33 6.92
02:45 1 18.3 74 47,136 0.02 0 0 2.47 25.86 0 2.85 4.33 9.35
02:41 1 18.3 73 47,142 0 0 0 3.78 20.28 0 2.85 4.34 7.53
02:40 1 18.3 73 47,221 0.02 0 0 4.28 21.97 0 1.43 3.38 6.92
02:39 1 18.4 73 47,334 0.01 0 0 4.05 20.66 0 1.43 2.89 5.1
02:37 1 18.4 73 47,665 0 0 0 4.06 20.89 0 2.85 3.86 6.92
02:36 1 18.4 73 47,766 0 0 0 4.06 21.21 0 2.85 4.34 8.14
02:35 1 18.4 73 47,861 0.01 0 0 3.76 21.39 0 2.85 3.86 6.92
02:34 1 18.4 73 47,999 0 0 0 4.17 20.13 0 2.14 4.35 7.53
02:33 1 18.4 73 48,161 0.01 0 0 4.37 21.14 0 2.14 4.35 7.53
02:32 1 18.4 73 48,249 0 0 0 4.17 20.45 0 2.14 3.87 6.31
02:29 1 18.5 73 48,342 0 0 0 3.26 26.29 0 2.85 4.83 8.14
02:27 1 18.5 73 48,364 0 0 0 4.27 21.33 0 2.14 3.39 7.53